createdAt,value
2018-12-19T00:01:15.998Z,12.20
2018-12-19T00:03:42.724Z,13.40
2018-12-19T00:06:10.162Z,13.07
2018-12-19T00:08:36.990Z,13.47
2018-12-19T00:11:03.697Z,13.07
2018-12-19T00:13:30.452Z,12.73
2018-12-19T00:15:57.205Z,13.57
2018-12-19T00:18:23.944Z,13.67
2018-12-19T00:20:50.640Z,13.37
2018-12-19T00:23:17.433Z,12.57
2018-12-19T00:25:44.135Z,13.17
2018-12-19T00:28:10.819Z,14.13
2018-12-19T00:30:37.668Z,12.77
2018-12-19T00:33:04.393Z,14.17
2018-12-19T00:35:31.096Z,14.03
2018-12-19T00:37:57.872Z,12.13
2018-12-19T00:40:24.583Z,11.97
2018-12-19T00:42:51.296Z,12.90
2018-12-19T00:45:18.799Z,13.10
2018-12-19T00:47:45.518Z,12.60
2018-12-19T00:50:12.219Z,12.80
2018-12-19T00:52:39.755Z,13.07
2018-12-19T00:55:07.945Z,13.33
2018-12-19T00:57:35.369Z,12.90
2018-12-19T01:00:02.270Z,12.10
2018-12-19T01:02:28.966Z,11.67
2018-12-19T01:04:55.749Z,12.33
2018-12-19T01:07:22.599Z,12.03
2018-12-19T01:09:49.344Z,11.60
2018-12-19T01:12:16.207Z,11.23
2018-12-19T01:14:42.915Z,11.73
2018-12-19T01:17:10.488Z,10.80
2018-12-19T01:19:37.560Z,11.73
2018-12-19T01:22:04.270Z,11.70
2018-12-19T01:24:31.044Z,11.40
2018-12-19T01:26:57.767Z,10.93
2018-12-19T01:29:24.565Z,10.50
2018-12-19T01:31:51.228Z,9.93
2018-12-19T01:34:17.984Z,9.83
2018-12-19T01:36:44.889Z,10.80
2018-12-19T01:39:11.546Z,10.27
2018-12-19T01:41:39.046Z,10.40
2018-12-19T01:44:05.758Z,9.93
2018-12-19T01:46:32.571Z,10.20
2018-12-19T01:49:00.080Z,9.77
2018-12-19T01:51:26.815Z,10.00
2018-12-19T01:53:53.537Z,10.20
2018-12-19T01:56:20.287Z,10.57
2018-12-19T01:58:47.015Z,10.57
2018-12-19T02:01:13.727Z,10.33
2018-12-19T02:03:40.508Z,10.47
2018-12-19T02:06:07.271Z,9.67
2018-12-19T02:08:34.294Z,9.60
2018-12-19T02:11:01.148Z,10.13
2018-12-19T02:13:27.889Z,10.93
2018-12-19T02:15:54.561Z,9.87
2018-12-19T02:18:22.767Z,9.80
2018-12-19T02:20:50.174Z,10.30
2018-12-19T02:23:16.909Z,8.80
2018-12-19T02:25:43.704Z,11.20
2018-12-19T02:28:11.132Z,11.63
2018-12-19T02:30:38.601Z,11.43
2018-12-19T02:33:06.098Z,11.77
2018-12-19T02:35:32.771Z,11.27
2018-12-19T02:38:00.226Z,11.37
2018-12-19T02:40:27.029Z,11.43
2018-12-19T02:42:53.788Z,10.60
2018-12-19T02:45:20.493Z,10.80
2018-12-19T02:47:48.011Z,10.60
2018-12-19T02:50:15.451Z,9.60
2018-12-19T02:52:42.123Z,8.20
2018-12-19T02:55:09.621Z,8.00
2018-12-19T02:57:36.325Z,8.03
2018-12-19T03:00:03.090Z,9.20
2018-12-19T03:02:31.067Z,11.93
2018-12-19T03:04:57.970Z,10.03
2018-12-19T03:07:24.639Z,10.03
2018-12-19T03:09:52.135Z,9.70
2018-12-19T03:12:18.960Z,9.60
2018-12-19T03:14:45.655Z,10.47
2018-12-19T03:17:13.151Z,9.93
2018-12-19T03:19:39.982Z,10.23
2018-12-19T03:22:07.037Z,10.83
2018-12-19T03:24:33.826Z,10.27
2018-12-19T03:27:01.353Z,10.20
2018-12-19T03:29:28.293Z,11.00
2018-12-19T03:31:55.068Z,11.37
2018-12-19T03:34:21.747Z,11.30
2018-12-19T03:36:48.472Z,10.87
2018-12-19T03:39:15.159Z,10.80
2018-12-19T03:41:41.887Z,10.67
2018-12-19T03:44:08.617Z,12.00
2018-12-19T03:46:36.002Z,10.13
2018-12-19T03:49:02.686Z,9.93
2018-12-19T03:51:29.396Z,10.90
2018-12-19T03:53:56.120Z,11.20
2018-12-19T03:56:22.911Z,10.57
2018-12-19T03:58:50.472Z,10.33
2018-12-19T04:01:17.983Z,11.50
2018-12-19T04:03:44.747Z,11.27
2018-12-19T04:06:11.521Z,11.47
2018-12-19T04:08:38.964Z,12.03
2018-12-19T04:11:05.663Z,12.00
2018-12-19T04:13:32.421Z,12.70
2018-12-19T04:15:59.114Z,11.57
2018-12-19T04:18:25.866Z,11.30
2018-12-19T04:20:52.774Z,11.60
2018-12-19T04:23:20.227Z,10.40
2018-12-19T04:25:46.940Z,10.70
2018-12-19T04:28:13.823Z,11.00
2018-12-19T04:30:41.318Z,11.80
2018-12-19T04:33:08.073Z,10.93
2018-12-19T04:35:34.892Z,10.80
2018-12-19T04:38:01.631Z,10.97
2018-12-19T04:40:28.374Z,11.37
2018-12-19T04:42:55.165Z,11.43
2018-12-19T04:45:21.865Z,10.77
2018-12-19T04:47:48.566Z,10.60
2018-12-19T04:50:16.052Z,11.73
2018-12-19T04:52:42.798Z,10.90
2018-12-19T04:55:24.501Z,10.83
2018-12-19T04:57:51.230Z,11.80
2018-12-19T05:00:17.925Z,10.83
2018-12-19T05:02:44.682Z,10.33
2018-12-19T05:05:12.251Z,10.60
2018-12-19T05:07:39.741Z,11.47
2018-12-19T05:10:12.231Z,10.97
2018-12-19T05:12:33.422Z,10.67
2018-12-19T05:15:00.204Z,10.87
2018-12-19T05:17:27.066Z,10.80
2018-12-19T05:19:53.860Z,10.83
2018-12-19T05:22:20.734Z,10.97
2018-12-19T05:24:47.459Z,11.53
2018-12-19T05:27:14.220Z,10.37
2018-12-19T05:29:40.998Z,11.10
2018-12-19T05:32:07.730Z,11.30
2018-12-19T05:34:34.532Z,10.73
2018-12-19T05:37:01.337Z,11.00
2018-12-19T05:39:28.064Z,11.10
2018-12-19T05:41:54.759Z,10.43
2018-12-19T05:44:21.601Z,10.17
2018-12-19T05:46:48.753Z,10.10
2018-12-19T05:49:16.225Z,10.47
2018-12-19T05:51:43.806Z,9.77
2018-12-19T05:54:10.580Z,10.53
2018-12-19T05:56:37.284Z,9.83
2018-12-19T05:59:04.839Z,10.03
2018-12-19T06:01:32.300Z,10.20
2018-12-19T06:03:59.159Z,9.80
2018-12-19T06:06:25.943Z,10.07
2018-12-19T06:08:52.671Z,9.90
2018-12-19T06:11:20.108Z,9.13
2018-12-19T06:13:46.889Z,9.83
2018-12-19T06:16:13.631Z,10.13
2018-12-19T06:18:40.433Z,9.80
2018-12-19T06:21:07.280Z,10.20
2018-12-19T06:23:34.208Z,8.97
2018-12-19T06:26:01.125Z,9.80
2018-12-19T06:28:27.865Z,9.33
2018-12-19T06:30:55.327Z,9.77
2018-12-19T06:33:22.296Z,10.50
2018-12-19T06:35:49.051Z,9.63
2018-12-19T06:38:15.788Z,8.87
2018-12-19T06:40:42.604Z,9.23
2018-12-19T06:43:09.357Z,9.60
2018-12-19T06:45:36.668Z,8.83
2018-12-19T06:48:04.479Z,9.53
2018-12-19T06:50:31.465Z,8.90
2018-12-19T06:52:58.227Z,8.50
2018-12-19T06:55:26.034Z,8.83
2018-12-19T06:57:52.723Z,8.93
2018-12-19T07:00:19.467Z,8.83
2018-12-19T07:02:46.249Z,9.13
2018-12-19T07:05:13.087Z,8.37
2018-12-19T07:07:39.874Z,8.20
2018-12-19T07:10:06.579Z,8.20
2018-12-19T07:12:33.237Z,8.77
2018-12-19T07:14:59.993Z,8.93
2018-12-19T07:17:26.705Z,8.97
2018-12-19T07:19:53.399Z,9.17
2018-12-19T07:22:20.832Z,8.30
2018-12-19T07:24:48.288Z,8.60
2018-12-19T07:27:15.068Z,8.90
2018-12-19T07:29:42.333Z,8.83
2018-12-19T07:32:09.808Z,8.80
2018-12-19T07:34:36.579Z,8.83
2018-12-19T07:37:03.466Z,8.40
2018-12-19T07:39:30.162Z,8.70
2018-12-19T07:41:56.876Z,9.07
2018-12-19T07:44:23.729Z,9.20
2018-12-19T07:46:51.227Z,9.47
2018-12-19T07:49:18.035Z,9.00
2018-12-19T07:51:44.826Z,8.70
2018-12-19T07:54:12.290Z,8.23
2018-12-19T07:56:39.052Z,8.37
2018-12-19T07:59:05.827Z,8.00
2018-12-19T08:01:32.720Z,8.67
2018-12-19T08:03:59.580Z,8.90
2018-12-19T08:06:26.278Z,8.00
2018-12-19T08:08:53.817Z,8.47
2018-12-19T08:11:20.577Z,8.00
2018-12-19T08:13:48.058Z,8.13
2018-12-19T08:16:14.747Z,8.00
2018-12-19T08:18:41.624Z,10.63
2018-12-19T08:21:09.052Z,8.40
2018-12-19T08:23:36.243Z,8.90
2018-12-19T08:26:03.805Z,8.87
2018-12-19T08:28:30.594Z,8.13
2018-12-19T08:30:57.302Z,8.43
2018-12-19T08:33:24.159Z,8.60
2018-12-19T08:35:50.879Z,8.90
2018-12-19T08:38:17.557Z,8.53
2018-12-19T08:40:44.291Z,9.50
2018-12-19T08:43:11.280Z,8.60
2018-12-19T08:45:37.993Z,8.30
2018-12-19T08:48:04.682Z,8.63
2018-12-19T08:50:32.146Z,8.80
2018-12-19T08:52:59.006Z,7.93
2018-12-19T08:55:25.701Z,8.70
2018-12-19T08:57:53.122Z,8.37
2018-12-19T09:00:19.901Z,9.07
2018-12-19T09:02:47.386Z,7.93
2018-12-19T09:05:14.039Z,8.10
2018-12-19T09:07:41.654Z,8.63
2018-12-19T09:10:08.430Z,11.00
2018-12-19T09:12:35.145Z,8.83
2018-12-19T09:15:01.999Z,8.57
2018-12-19T09:17:28.767Z,8.43
2018-12-19T09:19:55.513Z,8.70
2018-12-19T09:22:22.264Z,8.70
2018-12-19T09:24:48.957Z,8.10
2018-12-19T09:27:16.377Z,8.03
2018-12-19T09:29:43.134Z,8.73
2018-12-19T09:32:10.587Z,8.57
2018-12-19T09:34:37.333Z,8.80
2018-12-19T09:37:04.080Z,8.30
2018-12-19T09:39:30.773Z,8.20
2018-12-19T09:41:57.447Z,7.97
2018-12-19T09:44:24.227Z,8.37
2018-12-19T09:46:50.980Z,7.90
2018-12-19T09:49:17.727Z,8.57
2018-12-19T09:51:44.429Z,8.17
2018-12-19T09:54:11.927Z,7.83
2018-12-19T09:56:38.709Z,8.27
2018-12-19T09:59:05.421Z,8.23
2018-12-19T10:01:32.127Z,8.07
2018-12-19T10:03:58.895Z,8.73
2018-12-19T10:06:25.593Z,8.17
2018-12-19T10:08:53.083Z,8.10
2018-12-19T10:11:19.799Z,8.10
2018-12-19T10:13:46.524Z,8.10
2018-12-19T10:16:13.275Z,7.67
2018-12-19T10:18:39.959Z,8.43
2018-12-19T10:21:06.646Z,8.13
2018-12-19T10:23:33.441Z,7.87
2018-12-19T10:26:06.097Z,8.30
2018-12-19T10:28:32.883Z,7.47
2018-12-19T10:30:59.623Z,7.50
2018-12-19T10:33:26.350Z,7.17
2018-12-19T10:35:53.057Z,7.50
2018-12-19T10:38:19.815Z,6.87
2018-12-19T10:40:46.475Z,7.00
2018-12-19T10:43:13.219Z,7.53
2018-12-19T10:45:39.982Z,7.23
2018-12-19T10:48:07.383Z,7.40
2018-12-19T10:50:35.066Z,6.93
2018-12-19T10:53:01.795Z,7.43
2018-12-19T10:55:28.503Z,7.13
2018-12-19T10:57:55.907Z,6.40
2018-12-19T11:00:28.686Z,6.47
2018-12-19T11:02:55.420Z,7.93
2018-12-19T11:05:22.978Z,7.60
2018-12-19T11:07:50.481Z,7.93
2018-12-19T11:10:17.913Z,6.97
2018-12-19T11:12:46.182Z,8.40
2018-12-19T11:15:12.895Z,7.30
2018-12-19T11:17:39.596Z,7.43
2018-12-19T11:20:06.453Z,7.37
2018-12-19T11:22:33.828Z,7.27
2018-12-19T11:25:00.489Z,7.83
2018-12-19T11:27:34.121Z,7.03
2018-12-19T11:30:01.649Z,7.30
2018-12-19T11:32:28.352Z,7.70
2018-12-19T11:34:55.104Z,8.10
2018-12-19T11:37:21.933Z,7.37
2018-12-19T11:39:48.614Z,6.93
2018-12-19T11:42:15.303Z,7.40
2018-12-19T11:44:42.754Z,7.17
2018-12-19T11:47:10.175Z,7.20
2018-12-19T11:49:37.678Z,7.03
2018-12-19T11:52:05.082Z,7.33
2018-12-19T11:54:31.826Z,7.10
2018-12-19T11:56:59.357Z,7.13
2018-12-19T11:59:26.053Z,7.30
2018-12-19T12:01:53.539Z,7.07
2018-12-19T12:04:20.417Z,6.57
2018-12-19T12:06:47.135Z,6.63
2018-12-19T12:09:13.869Z,6.77
2018-12-19T12:11:47.621Z,7.03
2018-12-19T12:14:14.567Z,6.57
2018-12-19T12:16:41.519Z,6.73
2018-12-19T12:19:08.250Z,6.57
2018-12-19T12:21:34.924Z,5.90
2018-12-19T12:24:02.404Z,6.03
2018-12-19T12:26:29.198Z,6.70
2018-12-19T12:28:56.670Z,6.30
2018-12-19T12:31:24.174Z,5.43
2018-12-19T12:33:50.899Z,5.80
2018-12-19T12:36:17.606Z,5.63
2018-12-19T12:38:44.407Z,5.73
2018-12-19T12:41:11.193Z,5.87
2018-12-19T12:43:38.632Z,5.57
2018-12-19T12:46:05.329Z,5.17
2018-12-19T12:48:32.031Z,5.40
2018-12-19T12:50:59.433Z,5.00
2018-12-19T12:53:26.128Z,4.67
2018-12-19T12:55:52.888Z,4.90
2018-12-19T12:58:19.682Z,5.27
2018-12-19T13:00:46.361Z,5.03
2018-12-19T13:03:13.834Z,5.27
2018-12-19T13:05:40.500Z,4.67
2018-12-19T13:08:07.248Z,5.10
2018-12-19T13:10:36.414Z,4.87
2018-12-19T13:13:00.721Z,4.50
2018-12-19T13:15:33.680Z,5.23
2018-12-19T13:18:00.378Z,4.90
2018-12-19T13:20:27.090Z,5.50
2018-12-19T13:22:53.939Z,5.00
2018-12-19T13:25:21.337Z,5.80
2018-12-19T13:27:48.813Z,5.37
2018-12-19T13:30:15.575Z,5.27
2018-12-19T13:32:42.242Z,5.47
2018-12-19T13:35:08.937Z,5.07
2018-12-19T13:37:35.701Z,5.33
2018-12-19T13:40:02.407Z,5.77
2018-12-19T13:42:29.092Z,5.13
2018-12-19T13:44:55.775Z,5.00
2018-12-19T13:47:23.164Z,5.50
2018-12-19T13:49:50.660Z,5.10
2018-12-19T13:52:17.344Z,5.20
2018-12-19T13:54:44.015Z,5.30
2018-12-19T13:57:11.578Z,5.43
2018-12-19T13:59:38.994Z,5.33
2018-12-19T14:02:06.400Z,5.77
2018-12-19T14:04:33.206Z,5.50
2018-12-19T14:06:59.947Z,5.03
2018-12-19T14:09:26.624Z,5.13
2018-12-19T14:11:53.384Z,5.23
2018-12-19T14:14:20.043Z,5.87
2018-12-19T14:16:47.521Z,5.40
2018-12-19T14:19:17.605Z,5.53
2018-12-19T14:21:44.334Z,4.57
2018-12-19T14:24:11.058Z,4.80
2018-12-19T14:26:37.734Z,5.17
2018-12-19T14:29:04.426Z,5.13
2018-12-19T14:31:31.194Z,4.83
2018-12-19T14:33:57.952Z,4.87
2018-12-19T14:36:25.388Z,4.80
2018-12-19T14:38:52.103Z,4.97
2018-12-19T14:41:18.825Z,4.40
2018-12-19T14:43:45.590Z,4.47
2018-12-19T14:46:13.111Z,4.97
2018-12-19T14:48:39.796Z,4.30
2018-12-19T14:51:06.641Z,4.50
2018-12-19T14:53:33.417Z,4.80
2018-12-19T14:56:00.907Z,4.70
2018-12-19T14:58:28.398Z,4.80
2018-12-19T15:00:55.975Z,4.00
2018-12-19T15:03:22.639Z,4.30
2018-12-19T15:05:49.409Z,4.00
2018-12-19T15:08:16.180Z,4.30
2018-12-19T15:10:44.349Z,4.27
2018-12-19T15:13:11.135Z,4.30
2018-12-19T15:15:38.094Z,4.43
2018-12-19T15:18:04.836Z,4.87
2018-12-19T15:20:31.628Z,4.23
2018-12-19T15:22:58.348Z,4.77
2018-12-19T15:25:25.079Z,4.53
2018-12-19T15:27:51.862Z,4.80
2018-12-19T15:30:18.556Z,4.73
2018-12-19T15:32:46.224Z,4.97
2018-12-19T15:35:12.986Z,5.27
2018-12-19T15:37:39.704Z,5.50
2018-12-19T15:40:06.432Z,6.07
2018-12-19T15:42:33.251Z,6.20
2018-12-19T15:44:59.934Z,6.20
2018-12-19T15:47:41.577Z,5.73
2018-12-19T15:50:08.335Z,6.30
2018-12-19T15:52:35.163Z,5.87
2018-12-19T15:55:02.011Z,5.60
2018-12-19T15:57:28.773Z,6.37
2018-12-19T15:59:55.496Z,6.43
2018-12-19T16:02:22.233Z,6.60
2018-12-19T16:04:48.917Z,6.67
2018-12-19T16:07:15.641Z,7.77
2018-12-19T16:09:42.454Z,7.20
2018-12-19T16:12:09.182Z,6.57
2018-12-19T16:14:36.676Z,7.53
2018-12-19T16:17:03.542Z,6.80
2018-12-19T16:19:30.386Z,7.80
2018-12-19T16:21:57.205Z,7.13
2018-12-19T16:24:24.821Z,8.27
2018-12-19T16:26:52.362Z,8.30
2018-12-19T16:29:19.047Z,7.57
2018-12-19T16:31:45.897Z,7.03
2018-12-19T16:34:12.568Z,6.83
2018-12-19T16:36:39.301Z,6.67
2018-12-19T16:39:06.318Z,7.67
2018-12-19T16:41:32.993Z,7.30
2018-12-19T16:44:00.475Z,8.27
2018-12-19T16:46:27.296Z,8.47
2018-12-19T16:48:54.112Z,7.73
2018-12-19T16:51:20.846Z,8.20
2018-12-19T16:53:47.651Z,8.17
2018-12-19T16:56:15.122Z,7.97
2018-12-19T16:58:42.548Z,8.60
2018-12-19T17:01:09.254Z,8.50
2018-12-19T17:03:35.951Z,9.53
2018-12-19T17:06:03.388Z,9.23
2018-12-19T17:08:30.310Z,8.47
2018-12-19T17:10:57.073Z,9.00
2018-12-19T17:13:24.519Z,7.70
2018-12-19T17:15:51.495Z,9.00
2018-12-19T17:18:18.402Z,8.47
2018-12-19T17:20:45.250Z,7.70
2018-12-19T17:23:12.235Z,8.13
2018-12-19T17:25:39.800Z,11.07
2018-12-19T17:28:06.642Z,7.10
2018-12-19T17:30:33.562Z,8.03
2018-12-19T17:33:00.589Z,9.10
2018-12-19T17:35:27.842Z,7.17
2018-12-19T17:37:54.783Z,11.27
2018-12-19T17:40:22.428Z,10.50
2018-12-19T17:42:50.219Z,10.23
2018-12-19T17:45:17.178Z,13.60
2018-12-19T17:47:45.081Z,9.60
2018-12-19T17:50:12.068Z,10.43
2018-12-19T17:52:39.653Z,10.43
2018-12-19T17:55:07.314Z,10.23
2018-12-19T17:57:34.195Z,10.50
2018-12-19T18:00:01.163Z,11.17
2018-12-19T18:02:28.186Z,10.03
2018-12-19T18:04:55.043Z,11.23
2018-12-19T18:07:22.085Z,10.27
2018-12-19T18:09:49.422Z,10.47
2018-12-19T18:12:16.403Z,9.70
2018-12-19T18:14:43.253Z,9.60
2018-12-19T18:17:10.452Z,9.50
2018-12-19T18:19:37.535Z,9.07
2018-12-19T18:22:04.958Z,9.73
2018-12-19T18:24:32.173Z,9.67
2018-12-19T18:26:59.644Z,10.50
2018-12-19T18:29:27.463Z,9.97
2018-12-19T18:31:54.614Z,9.23
2018-12-19T18:34:21.751Z,9.47
2018-12-19T18:36:49.502Z,9.53
2018-12-19T18:39:17.050Z,9.00
2018-12-19T18:41:43.942Z,9.73
2018-12-19T18:44:10.879Z,9.90
2018-12-19T18:46:37.806Z,7.93
2018-12-19T18:49:10.832Z,8.77
2018-12-19T18:51:37.714Z,10.13
2018-12-19T18:54:04.773Z,8.57
2018-12-19T18:56:32.466Z,9.77
2018-12-19T18:58:59.407Z,9.77
2018-12-19T19:01:26.363Z,10.43
2018-12-19T19:03:53.485Z,10.10
2018-12-19T19:06:20.542Z,10.30
2018-12-19T19:08:47.498Z,10.67
2018-12-19T19:11:14.535Z,12.27
2018-12-19T19:13:42.191Z,11.13
2018-12-19T19:16:09.142Z,10.50
2018-12-19T19:18:36.192Z,10.20
2018-12-19T19:21:03.167Z,11.47
2018-12-19T19:23:30.269Z,12.27
2018-12-19T19:25:58.044Z,10.33
2018-12-19T19:28:24.999Z,11.23
2018-12-19T19:30:52.254Z,11.23
2018-12-19T19:33:19.378Z,11.20
2018-12-19T19:35:47.329Z,10.10
2018-12-19T19:38:14.241Z,10.03
2018-12-19T19:40:41.229Z,12.03
2018-12-19T19:43:09.303Z,11.57
2018-12-19T19:45:37.063Z,10.60
2018-12-19T19:48:04.861Z,11.30
2018-12-19T19:50:33.014Z,10.70
2018-12-19T19:53:00.821Z,10.80
2018-12-19T19:55:27.818Z,10.37
2018-12-19T19:57:54.758Z,11.07
2018-12-19T20:00:26.663Z,11.27
2018-12-19T20:02:53.612Z,11.83
2018-12-19T20:05:20.807Z,11.80
2018-12-19T20:07:47.751Z,11.83
2018-12-19T20:10:14.655Z,10.43
2018-12-19T20:12:41.661Z,11.33
2018-12-19T20:15:09.434Z,12.13
2018-12-19T20:17:36.407Z,10.27
2018-12-19T20:20:03.475Z,10.50
2018-12-19T20:22:30.490Z,10.60
2018-12-19T20:24:57.420Z,10.27
2018-12-19T20:27:24.419Z,11.67
2018-12-19T20:29:51.635Z,11.80
2018-12-19T20:32:18.817Z,10.30
2018-12-19T20:34:45.861Z,12.20
2018-12-19T20:37:13.751Z,11.73
2018-12-19T20:39:40.809Z,9.80
2018-12-19T20:42:08.649Z,9.53
2018-12-19T20:44:35.649Z,10.47
2018-12-19T20:47:03.414Z,10.77
2018-12-19T20:49:30.518Z,10.33
2018-12-19T20:51:58.232Z,9.07
2018-12-19T20:54:25.119Z,11.70
2018-12-19T20:56:52.120Z,10.03
2018-12-19T20:59:19.150Z,10.97
2018-12-19T21:01:46.318Z,10.70
2018-12-19T21:04:13.274Z,11.03
2018-12-19T21:06:40.350Z,10.40
2018-12-19T21:09:07.363Z,12.10
2018-12-19T21:11:34.291Z,10.63
2018-12-19T21:14:01.574Z,10.83
2018-12-19T21:16:34.619Z,11.53
2018-12-19T21:19:02.393Z,12.17
2018-12-19T21:21:29.482Z,11.93
2018-12-19T21:23:56.376Z,10.83
2018-12-19T21:26:24.186Z,11.13
2018-12-19T21:28:51.137Z,10.83
2018-12-19T21:31:18.214Z,11.43
2018-12-19T21:33:45.961Z,11.20
2018-12-19T21:36:13.637Z,11.37
2018-12-19T21:38:40.603Z,11.67
2018-12-19T21:41:08.422Z,10.77
2018-12-19T21:43:35.363Z,11.43
2018-12-19T21:46:02.187Z,11.47
2018-12-19T21:48:29.703Z,11.47
2018-12-19T21:50:56.373Z,11.87
2018-12-19T21:53:23.831Z,11.23
2018-12-19T21:55:51.316Z,12.50
2018-12-19T21:58:18.185Z,12.60
2018-12-19T22:00:44.904Z,11.80
2018-12-19T22:03:11.676Z,11.93
2018-12-19T22:05:38.751Z,12.13
2018-12-19T22:08:05.721Z,11.20
2018-12-19T22:10:33.396Z,11.77
2018-12-19T22:13:00.117Z,11.43
2018-12-19T22:15:26.948Z,11.20
2018-12-19T22:18:00.631Z,10.77
2018-12-19T22:20:27.450Z,10.47
2018-12-19T22:22:55.079Z,12.50
2018-12-19T22:25:21.913Z,12.50
2018-12-19T22:27:48.719Z,13.23
2018-12-19T22:30:15.563Z,11.90
2018-12-19T22:32:42.366Z,13.33
2018-12-19T22:35:09.151Z,12.53
2018-12-19T22:37:35.873Z,13.93
2018-12-19T22:40:02.716Z,13.80
2018-12-19T22:42:29.550Z,13.83
2018-12-19T22:44:56.396Z,13.77
2018-12-19T22:47:24.041Z,13.30
2018-12-19T22:49:50.957Z,14.67
2018-12-19T22:52:17.892Z,13.57
2018-12-19T22:54:45.444Z,14.17
2018-12-19T22:57:12.951Z,14.80
2018-12-19T22:59:39.670Z,14.47
2018-12-19T23:02:12.292Z,14.90
2018-12-19T23:04:39.865Z,14.40
2018-12-19T23:07:06.720Z,15.67
2018-12-19T23:09:33.531Z,15.50
2018-12-19T23:12:00.302Z,15.17
2018-12-19T23:14:27.355Z,15.13
2018-12-19T23:16:54.907Z,16.20
2018-12-19T23:19:21.627Z,16.60
2018-12-19T23:21:48.346Z,16.40
2018-12-19T23:24:15.164Z,16.17
2018-12-19T23:26:42.821Z,17.13
2018-12-19T23:29:09.626Z,16.60
2018-12-19T23:31:37.180Z,15.87
2018-12-19T23:34:04.012Z,17.33
2018-12-19T23:36:30.772Z,16.30
2018-12-19T23:38:57.546Z,16.33
2018-12-19T23:41:24.523Z,17.13
2018-12-19T23:43:51.378Z,17.47
2018-12-19T23:46:18.308Z,17.47
2018-12-19T23:48:45.208Z,17.23
2018-12-19T23:51:12.038Z,19.33
2018-12-19T23:53:38.729Z,17.70
2018-12-19T23:56:05.478Z,17.27
2018-12-19T23:58:32.228Z,19.00
